Have a Safe July 4th! 

Flight Track Log - Related Links

Times and Time Zones

All times are in EDT time to prevent confusion due to time zone crossing. See the NKS298 flight status page for this flight to view local times or setup timezone preferences in your user account.

Time Position Orientation Groundspeed Altitude Reporting Facility
EDT Latitude Longitude Course Direction KTS MPH feet Rate Location/Type
Sun 04:30:43 AM 36.0760 -115.1260 154° Southeast 70 81  Level FlightAware ADS-B
Sun 04:30:56 AM 36.0760 -115.1330 270° West 125 144 4,167 Level FlightAware ADS-B
Sun 04:31:19 AM 36.0770 -115.1550 273° West 169 194 2,500 4,465 Climbing FlightAware ADS-B
Sun 04:31:39 AM 36.0770 -115.1750 270° West 178 205 3,200 2,000 Climbing FlightAware ADS-B
Sun 04:31:58 AM 36.0780 -115.1960 273° West 197 227 3,800 1,773 Climbing FlightAware ADS-B
Sun 04:32:23 AM 36.0780 -115.2250 270° West 233 268 4,500 1,714 Climbing FlightAware ADS-B
Sun 04:32:33 AM 36.0760 -115.2400 261° West 242 278 4,800 2,000 Climbing FlightAware ADS-B
Sun 04:32:38 AM 36.0740 -115.2450 244° Southwest 245 282 5,000 2,769 Climbing FlightAware ADS-B
Sun 04:32:46 AM 36.0690 -115.2560 241° Southwest 248 285 5,400 2,625 Climbing FlightAware ADS-B
Sun 04:32:54 AM 36.0610 -115.2630 215° Southwest 254 292 5,700 2,824 Climbing FlightAware ADS-B
Sun 04:33:03 AM 36.0520 -115.2680 204° Southwest 257 296 6,200 3,517 Climbing FlightAware ADS-B
Sun 04:33:23 AM 36.0290 -115.2760 196° South 257 296 7,400 3,500 Climbing FlightAware ADS-B
Sun 04:33:27 AM 36.0240 -115.2760 180° South 261 300 7,600 2,357 Climbing FlightAware ADS-B
Sun 04:33:51 AM 35.9950 -115.2660 164° South 282 325 8,500 2,364 Climbing FlightAware ADS-B
Sun 04:34:00 AM 35.9850 -115.2570 144° Southeast 291 335 8,900 3,143 Climbing FlightAware ADS-B
Sun 04:34:12 AM 35.9760 -115.2400 123° Southeast 299 344 9,600 3,158 Climbing FlightAware ADS-B
Sun 04:34:19 AM 35.9740 -115.2300 104° East 302 348 9,900 3,600 Climbing FlightAware ADS-B
Sun 04:34:27 AM 35.9730 -115.2160 95° East 301 346 10,500 2,318 Climbing FlightAware ADS-B
Sun 04:35:03 AM 35.9700 -115.1510 93° East 338 389 11,600 1,588 Climbing FlightAware ADS-B
Sun 04:35:35 AM 35.9680 -115.0860 92° East 373 429 12,300 1,909 Climbing FlightAware ADS-B
Sun 04:36:09 AM 35.9660 -115.0110 92° East 384 442 13,700 2,451 Climbing FlightAware ADS-B
Sun 04:36:46 AM 35.9640 -114.9320 92° East 392 451 15,200 2,333 Climbing FlightAware ADS-B
Sun 04:37:21 AM 35.9610 -114.8500 93° East 407 468 16,500 2,167 Climbing FlightAware ADS-B
Sun 04:37:58 AM 35.9580 -114.7640 92° East 416 479 17,800 2,000 Climbing FlightAware ADS-B
Sun 04:38:33 AM 35.9550 -114.6780 92° East 429 494 18,900 1,941 Climbing FlightAware ADS-B
Sun 04:39:06 AM 35.9520 -114.5960 93° East 440 506 20,000 1,941 Climbing FlightAware ADS-B
Sun 04:39:41 AM 35.9480 -114.5080 93° East 448 516 21,100 1,833 Climbing FlightAware ADS-B
Sun 04:40:18 AM 35.9450 -114.4120 92° East 454 522 22,200 1,833 Climbing FlightAware ADS-B
Sun 04:40:53 AM 35.9410 -114.3230 93° East 458 527 23,300 1,701 Climbing FlightAware ADS-B
Sun 04:41:25 AM 35.9380 -114.2390 93° East 462 532 24,100 1,478 Climbing FlightAware ADS-B
Sun 04:42:02 AM 35.9330 -114.1390 94° East 470 541 25,000 1,500 Climbing FlightAware ADS-B
Sun 04:42:29 AM 35.9310 -114.0660 92° East 473 544 25,700 1,524 Climbing FlightAware ADS-B
Sun 04:43:05 AM 35.9260 -113.9700 94° East 478 550 26,600 1,315 Climbing FlightAware ADS-B
Sun 04:43:42 AM 35.9190 -113.8710 95° East 484 557 27,300 1,099 Climbing FlightAware ADS-B
Sun 04:44:16 AM 35.9040 -113.7760 101° East 493 567 27,900 1,254 Climbing FlightAware ADS-B
Sun 04:44:49 AM 35.8890 -113.6870 102° East 496 571 28,700 1,286 Climbing FlightAware ADS-B
Sun 04:45:26 AM 35.8730 -113.5830 101° East 503 579 29,400 1,268 Climbing FlightAware ADS-B
Sun 04:46:00 AM 35.8580 -113.4860 101° East 502 578 30,200 1,853 Climbing FlightAware ADS-B
Sun 04:46:34 AM 35.8430 -113.3910 101° East 491 565 31,500 1,833 Climbing FlightAware ADS-B
Sun 04:47:12 AM 35.8270 -113.2900 101° East 487 560 32,400 1,280 Climbing FlightAware ADS-B
Sun 04:47:49 AM 35.8100 -113.1880 102° East 491 565 33,100 1,130 Climbing FlightAware ADS-B
Sun 04:48:21 AM 35.7960 -113.1000 101° East 493 567 33,700 1,000 Climbing FlightAware ADS-B
Sun 04:48:55 AM 35.7800 -113.0050 102° East 495 570 34,200 1,000 Climbing FlightAware ADS-B
Sun 04:49:33 AM 35.7630 -112.9030 102° East 495 570 34,900 1,200 Climbing FlightAware ADS-B
Sun 04:49:55 AM 35.7529 -112.8391 101° East 493 567 35,400 1,200 Climbing FlightAware ADS-B
Sun 04:50:33 AM 35.7387 -112.7540 102° East 491 565 36,100 963 Climbing FlightAware ADS-B
Sun 04:51:16 AM 35.7160 -112.6180 102° East 489 563 36,700 750 Climbing FlightAware ADS-B
Sun 04:51:29 AM 35.7107 -112.5860 102° East 493 567 36,800 261 Climbing FlightAware ADS-B
Sun 04:52:25 AM 35.6840 -112.4260 102° East 503 579 37,000 130 Climbing FlightAware ADS-B
Sun 04:53:01 AM 35.6670 -112.3290 102° East 501 577 37,000  Level FlightAware ADS-B
Sun 04:53:38 AM 35.6490 -112.2240 102° East 504 580 37,000  Level FlightAware ADS-B
Sun 04:54:14 AM 35.6330 -112.1310 102° East 507 583 37,000  Level FlightAware ADS-B
Sun 04:54:46 AM 35.6170 -112.0330 101° East 508 585 37,000  Level FlightAware ADS-B
Sun 04:55:22 AM 35.5990 -111.9310 102° East 507 583 37,000  Level FlightAware ADS-B
Sun 04:55:58 AM 35.5910 -111.8280 95° East 521 600 37,000  Level FlightAware ADS-B
Sun 04:56:30 AM 35.5890 -111.7330 91° East 521 600 37,000  Level FlightAware ADS-B
Sun 04:57:06 AM 35.5860 -111.6280 92° East 521 600 37,000  Level FlightAware ADS-B
Sun 04:57:42 AM 35.5830 -111.5200 92° East 520 598 37,000  Level FlightAware ADS-B
Sun 04:58:16 AM 35.5800 -111.4230 92° East 520 598 37,000 -86 Level FlightAware ADS-B
Sun 04:58:52 AM 35.5760 -111.3170 93° East 522 601 36,900  Descending FlightAware ADS-B
Sun 04:59:28 AM 35.5730 -111.2070 92° East 524 603 37,000 88 Climbing FlightAware ADS-B
Sun 05:00:00 AM 35.5700 -111.1140 92° East 525 604 37,000  Level FlightAware ADS-B
Sun 05:00:36 AM 35.5660 -111.0060 93° East 527 606 37,000  Level FlightAware ADS-B
Sun 05:01:12 AM 35.5630 -110.8990 92° East 526 605 37,000  Level FlightAware ADS-B
Sun 05:01:48 AM 35.5590 -110.7910 93° East 525 604 37,000  Level FlightAware ADS-B
Sun 05:02:20 AM 35.5560 -110.6960 92° East 526 605 37,000  Level FlightAware ADS-B
Sun 05:02:58 AM 35.5510 -110.5820 93° East 526 605 37,000  Level FlightAware ADS-B
Sun 05:03:30 AM 35.5480 -110.4900 92° East 526 605 37,000  Level FlightAware ADS-B
Sun 05:04:06 AM 35.5440 -110.3790 93° East 525 604 37,000  Level FlightAware ADS-B
Sun 05:04:42 AM 35.5400 -110.2740 93° East 522 601 37,000  Level FlightAware ADS-B
Sun 05:05:16 AM 35.5360 -110.1730 93° East 521 600 37,000  Level FlightAware ADS-B
Sun 05:05:54 AM 35.5310 -110.0620 93° East 520 598 37,000 -88 Level FlightAware ADS-B
Sun 05:06:24 AM 35.5270 -109.9720 93° East 521 600 36,900  Descending FlightAware ADS-B
Sun 05:07:02 AM 35.5220 -109.8600 93° East 523 602 37,000 86 Climbing FlightAware ADS-B
Sun 05:07:34 AM 35.5180 -109.7650 93° East 525 604 37,000  Level FlightAware ADS-B
Sun 05:08:12 AM 35.5130 -109.6520 93° East 527 606 37,000  Level FlightAware ADS-B
Sun 05:08:48 AM 35.5090 -109.5450 93° East 528 608 37,000  Level FlightAware ADS-B
Sun 05:09:20 AM 35.5040 -109.4500 94° East 528 608 37,000  Level FlightAware ADS-B
Sun 05:10:15 AM 35.4970 -109.2970 93° East 529 609 37,000  Level FlightAware ADS-B
Sun 05:10:54 AM 35.4910 -109.1670 93° East 527 606 37,000  Level FlightAware ADS-B
Sun 05:11:28 AM 35.4860 -109.0690 94° East 527 606 37,000  Level FlightAware ADS-B
Sun 05:12:10 AM 35.4810 -108.9610 93° East 526 605 37,000  Level FlightAware ADS-B
Sun 05:12:46 AM 35.4770 -108.8700 93° East 526 605 37,000  Level FlightAware ADS-B
Sun 05:13:22 AM 35.4730 -108.7780 93° East 526 605 37,000  Level FlightAware ADS-B
Sun 05:13:52 AM 35.4320 -108.6550 112° Southeast 509 586 37,000  Level FlightAware ADS-B
Sun 05:14:30 AM 35.4150 -108.5640 103° East 509 586 37,000  Level FlightAware ADS-B
Sun 05:15:10 AM 35.3900 -108.4470 105° East 509 586 37,000  Level FlightAware ADS-B
Sun 05:15:47 AM 35.3740 -108.3580 102° East 509 586 37,000  Level FlightAware ADS-B
Sun 05:16:21 AM 35.3580 -108.2770 104° East 509 586 37,000  Level FlightAware ADS-B
Sun 05:16:56 AM 35.3270 -108.1410 106° East 506 582 37,000 -68 Level FlightAware ADS-B
Sun 05:17:49 AM 35.2990 -108.0050 104° East 506 582 36,900 -67 Descending FlightAware ADS-B
Sun 05:18:25 AM 35.2810 -107.9200 105° East 506 582 36,900  Level FlightAware ADS-B
Sun 05:19:01 AM 35.2640 -107.8350 104° East 506 582 36,900 160 Level FlightAware ADS-B
Sun 05:19:40 AM 35.2310 -107.6830 105° East 518 596 37,100 169 Climbing FlightAware ADS-B
Sun 05:20:12 AM 35.2110 -107.5910 105° East 515 593 37,100 -88 Level FlightAware ADS-B
Sun 05:20:48 AM 35.1890 -107.4870 104° East 514 592 37,000 -97 Descending FlightAware ADS-B
Sun 05:21:14 AM 35.1735 -107.4147 105° East 516 594 37,000  Level FlightAware ADS-B (EHAM / AMS)
Sun 05:21:44 AM 35.1556 -107.3315 105° East 518 596 37,000  Level FlightAware ADS-B (EHAM / AMS)
Sun 05:22:24 AM 35.1314 -107.2199 105° East 520 598 37,000  Level FlightAware ADS-B (EHAM / AMS)
Sun 05:22:54 AM 35.1126 -107.1330 105° East 522 601 37,000  Level FlightAware ADS-B (EHAM / AMS)
Sun 05:23:24 AM 35.0948 -107.0512 105° East 521 600 37,000  Level FlightAware ADS-B (EHAM / AMS)
Sun 05:23:54 AM 35.0757 -106.9630 105° East 520 598 37,000  Level FlightAware ADS-B (EHAM / AMS)
Sun 05:24:24 AM 35.0540 -106.8824 108° East 512 589 37,000  Level FlightAware ADS-B (EHAM / AMS)
Sun 05:24:54 AM 35.0248 -106.8025 114° Southeast 502 578 37,000  Level FlightAware ADS-B (EHAM / AMS)
Sun 05:25:24 AM 34.9932 -106.7337 119° Southeast 494 568 37,000  Level FlightAware ADS-B (EHAM / AMS)
Sun 05:25:54 AM 34.9530 -106.6621 124° Southeast 488 562 37,000  Level FlightAware ADS-B (EHAM / AMS)
Sun 05:26:24 AM 34.9120 -106.5925 126° Southeast 490 564 37,000  Level FlightAware ADS-B (EHAM / AMS)
Sun 05:26:54 AM 34.8728 -106.5256 126° Southeast 493 567 37,000  Level FlightAware ADS-B (EHAM / AMS)
Sun 05:27:25 AM 34.8317 -106.4561 126° Southeast 494 568 37,000  Level FlightAware ADS-B (EHAM / AMS)
Sun 05:27:55 AM 34.7915 -106.3880 126° Southeast 496 571 37,000  Level FlightAware ADS-B (EHAM / AMS)
Sun 05:28:25 AM 34.7504 -106.3188 126° Southeast 499 574 37,000  Level FlightAware ADS-B (EHAM / AMS)
Sun 05:29:00 AM 34.7050 -106.2420 126° Southeast 500 575 37,000  Level FlightAware ADS-B
Sun 05:29:32 AM 34.6630 -106.1720 126° Southeast 502 578 37,000  Level FlightAware ADS-B
Sun 05:30:02 AM 34.6200 -106.0990 126° Southeast 502 578 37,000 94 Level FlightAware ADS-B
Sun 05:30:36 AM 34.5740 -106.0220 126° Southeast 502 578 37,100  Climbing FlightAware ADS-B
Sun 05:31:12 AM 34.5270 -105.9440 126° Southeast 502 578 37,000 -86 Descending FlightAware ADS-B
Sun 05:31:46 AM 34.4790 -105.8640 126° Southeast 505 581 37,000  Level FlightAware ADS-B
Sun 05:32:19 AM 34.4320 -105.7870 126° Southeast 505 581 37,000  Level FlightAware ADS-B
Sun 05:32:56 AM 34.3820 -105.7020 125° Southeast 503 579 37,000  Level FlightAware ADS-B
Sun 05:33:32 AM 34.3350 -105.6190 124° Southeast 512 589 37,000  Level FlightAware ADS-B
Sun 05:34:09 AM 34.2880 -105.5300 123° Southeast 511 588 37,000  Level FlightAware ADS-B
Sun 05:34:38 AM 34.2500 -105.4590 123° Southeast 509 586 37,000  Level FlightAware ADS-B
Sun 05:35:17 AM 34.1990 -105.3650 123° Southeast 508 585 37,000  Level FlightAware ADS-B
Sun 05:35:54 AM 34.1520 -105.2770 123° Southeast 508 585 37,000  Level FlightAware ADS-B
Sun 05:36:25 AM 34.1140 -105.2070 123° Southeast 509 586 37,000  Level FlightAware ADS-B
Sun 05:37:01 AM 34.0660 -105.1180 123° Southeast 509 586 37,000  Level FlightAware ADS-B
Sun 05:37:38 AM 34.0200 -105.0330 123° Southeast 509 586 37,000  Level FlightAware ADS-B
Sun 05:38:11 AM 33.9760 -104.9530 124° Southeast 510 587 37,000  Level FlightAware ADS-B
Sun 05:38:46 AM 33.9310 -104.8700 123° Southeast 510 587 37,000  Level FlightAware ADS-B
Sun 05:39:23 AM 33.8840 -104.7840 123° Southeast 509 586 37,000  Level FlightAware ADS-B
Sun 05:39:59 AM 33.8370 -104.6980 123° Southeast 507 583 37,000  Level FlightAware ADS-B
Sun 05:40:38 AM 33.7870 -104.6070 123° Southeast 506 582 37,000  Level FlightAware ADS-B
Sun 05:41:15 AM 33.7400 -104.5210 123° Southeast 505 581 37,000  Level FlightAware ADS-B
Sun 05:41:50 AM 33.6960 -104.4410 123° Southeast 503 579 37,000  Level FlightAware ADS-B
Sun 05:42:23 AM 33.6530 -104.3630 124° Southeast 505 581 37,000  Level FlightAware ADS-B
Sun 05:42:59 AM 33.6050 -104.2770 124° Southeast 505 581 37,000  Level FlightAware ADS-B
Sun 05:43:33 AM 33.5610 -104.1960 123° Southeast 505 581 37,000  Level FlightAware ADS-B
Sun 05:44:06 AM 33.5190 -104.1210 124° Southeast 503 579 37,000  Level FlightAware ADS-B
Sun 05:44:43 AM 33.4730 -104.0390 124° Southeast 502 578 37,000  Level FlightAware ADS-B
Sun 05:45:20 AM 33.4260 -103.9550 124° Southeast 501 577 37,000  Level FlightAware ADS-B
Sun 05:45:55 AM 33.3790 -103.8710 124° Southeast 500 575 37,000  Level FlightAware ADS-B
Sun 05:46:27 AM 33.3400 -103.8010 124° Southeast 499 574 37,000  Level FlightAware ADS-B
Sun 05:47:04 AM 33.2890 -103.7160 126° Southeast 494 568 37,000  Level FlightAware ADS-B
Sun 05:47:39 AM 33.2390 -103.6410 129° Southeast 493 567 37,000  Level FlightAware ADS-B
Sun 05:48:13 AM 33.1900 -103.5660 128° Southeast 496 571 37,000  Level FlightAware ADS-B
Sun 05:48:50 AM 33.1390 -103.4870 128° Southeast 499 574 37,000  Level FlightAware ADS-B
Sun 05:49:25 AM 33.0880 -103.4100 128° Southeast 500 575 37,000  Level FlightAware ADS-B
Sun 05:49:57 AM 33.0420 -103.3390 128° Southeast 501 577 37,000 87 Level FlightAware ADS-B
Sun 05:50:34 AM 32.9900 -103.2600 128° Southeast 498 573 37,100  Climbing FlightAware ADS-B
Sun 05:51:09 AM 32.9410 -103.1840 128° Southeast 498 573 37,000 -88 Descending FlightAware ADS-B
Sun 05:51:42 AM 32.8940 -103.1130 128° Southeast 498 573 37,000  Level FlightAware ADS-B
Sun 05:52:18 AM 32.8430 -103.0360 128° Southeast 497 572 37,000  Level FlightAware ADS-B
Sun 05:52:53 AM 32.7950 -102.9630 128° Southeast 497 572 37,000  Level FlightAware ADS-B
Sun 05:53:30 AM 32.7410 -102.8810 128° Southeast 497 572 37,000  Level FlightAware ADS-B
Sun 05:54:05 AM 32.6920 -102.8070 128° Southeast 499 574 37,000  Level FlightAware ADS-B
Sun 05:54:37 AM 32.6450 -102.7360 128° Southeast 499 574 37,000  Level FlightAware ADS-B
Sun 05:55:13 AM 32.5940 -102.6590 128° Southeast 499 574 37,000  Level FlightAware ADS-B
Sun 05:55:49 AM 32.5430 -102.5820 128° Southeast 499 574 37,000  Level FlightAware ADS-B
Sun 05:56:25 AM 32.4910 -102.5050 129° Southeast 501 577 37,000  Level FlightAware ADS-B
Sun 05:56:58 AM 32.4440 -102.4340 128° Southeast 501 577 37,000  Level FlightAware ADS-B
Sun 05:57:33 AM 32.3930 -102.3580 128° Southeast 501 577 37,000  Level FlightAware ADS-B
Sun 05:58:07 AM 32.3450 -102.2870 129° Southeast 501 577 37,000  Level FlightAware ADS-B
Sun 05:58:43 AM 32.2920 -102.2070 128° Southeast 500 575 37,000  Level FlightAware ADS-B
Sun 05:59:16 AM 32.2460 -102.1390 129° Southeast 499 574 37,000  Level FlightAware ADS-B
Sun 05:59:54 AM 32.1910 -102.0570 128° Southeast 499 574 37,000  Level FlightAware ADS-B
Sun 06:00:30 AM 32.1380 -101.9800 129° Southeast 498 573 37,000  Level FlightAware ADS-B
Sun 06:01:06 AM 32.0880 -101.9050 128° Southeast 496 571 37,000  Level FlightAware ADS-B
Sun 06:01:40 AM 32.0410 -101.8370 129° Southeast 495 570 37,000  Level FlightAware ADS-B
Sun 06:02:12 AM 31.9930 -101.7660 129° Southeast 495 570 37,000  Level FlightAware ADS-B
Sun 06:02:48 AM 31.9410 -101.6890 129° Southeast 495 570 37,000  Level FlightAware ADS-B
Sun 06:03:24 AM 31.8910 -101.6150 129° Southeast 493 567 37,000  Level FlightAware ADS-B
Sun 06:04:00 AM 31.8380 -101.5380 129° Southeast 492 566 37,000  Level FlightAware ADS-B
Sun 06:04:33 AM 31.7930 -101.4720 129° Southeast 492 566 37,000  Level FlightAware ADS-B
Sun 06:05:08 AM 31.7410 -101.3980 130° Southeast 492 566 37,000  Level FlightAware ADS-B
Sun 06:05:44 AM 31.6900 -101.3240 129° Southeast 490 564 37,000  Level FlightAware ADS-B
Sun 06:06:20 AM 31.6390 -101.2500 129° Southeast 492 566 37,000  Level FlightAware ADS-B
Sun 06:06:52 AM 31.5930 -101.1830 129° Southeast 492 566 37,000  Level FlightAware ADS-B
Sun 06:07:28 AM 31.5410 -101.1080 129° Southeast 491 565 37,000  Level FlightAware ADS-B
Sun 06:08:02 AM 31.4920 -101.0370 129° Southeast 492 566 37,000  Level FlightAware ADS-B
Sun 06:08:38 AM 31.4400 -100.9630 129° Southeast 491 565 37,000  Level FlightAware ADS-B
Sun 06:09:14 AM 31.3880 -100.8880 129° Southeast 491 565 37,000  Level FlightAware ADS-B
Sun 06:09:48 AM 31.3400 -100.8190 129° Southeast 491 565 37,000  Level FlightAware ADS-B
Sun 06:10:26 AM 31.2850 -100.7400 129° Southeast 493 567 37,000  Level FlightAware ADS-B
Sun 06:10:58 AM 31.2390 -100.6740 129° Southeast 493 567 37,000  Level FlightAware ADS-B
Sun 06:11:34 AM 31.1910 -100.6050 129° Southeast 493 567 37,000  Level FlightAware ADS-B
Sun 06:12:07 AM 31.1410 -100.5350 130° Southeast 492 566 37,000  Level FlightAware ADS-B
Sun 06:12:44 AM 31.0880 -100.4600 130° Southeast 492 566 37,000  Level FlightAware ADS-B
Sun 06:13:16 AM 31.0400 -100.3920 129° Southeast 491 565 37,000  Level FlightAware ADS-B
Sun 06:13:53 AM 30.9880 -100.3180 129° Southeast 490 564 37,000  Level FlightAware ADS-B
Sun 06:14:30 AM 30.9330 -100.2470 132° Southeast 483 556 37,000  Level FlightAware ADS-B
Sun 06:15:03 AM 30.8790 -100.1850 135° Southeast 484 557 37,000  Level FlightAware ADS-B
Sun 06:15:38 AM 30.8220 -100.1180 135° Southeast 485 558 37,000  Level FlightAware ADS-B
Sun 06:16:14 AM 30.7680 -100.0560 135° Southeast 486 559 37,000  Level FlightAware ADS-B
Sun 06:16:51 AM 30.7090 -99.9860 134° Southeast 485 558 37,000  Level FlightAware ADS-B
Sun 06:17:22 AM 30.6610 -99.9300 135° Southeast 485 558 37,000  Level FlightAware ADS-B
Sun 06:18:04 AM 30.5923 -99.8496 135° Southeast 484 557 37,000  Level FlightAware ADS-B
Sun 06:18:35 AM 30.5460 -99.7950 135° Southeast 482 555 37,000  Level FlightAware ADS-B
Sun 06:19:07 AM 30.4950 -99.7370 136° Southeast 481 554 37,000  Level FlightAware ADS-B
Sun 06:19:40 AM 30.4440 -99.6770 135° Southeast 481 554 37,000  Level FlightAware ADS-B
Sun 06:20:19 AM 30.3810 -99.6020 134° Southeast 481 554 37,000  Level FlightAware ADS-B
Sun 06:20:56 AM 30.3260 -99.5360 134° Southeast 483 556 37,000  Level FlightAware ADS-B
Sun 06:21:27 AM 30.2770 -99.4760 133° Southeast 486 559 37,000  Level FlightAware ADS-B
Sun 06:22:04 AM 30.2220 -99.3990 130° Southeast 490 564 37,000  Level FlightAware ADS-B
Sun 06:22:39 AM 30.1790 -99.3300 126° Southeast 493 567 37,000  Level FlightAware ADS-B
Sun 06:23:16 AM 30.1300 -99.2500 125° Southeast 494 568 37,000  Level FlightAware ADS-B
Sun 06:23:38 AM 30.0970 -99.1965 125° Southeast 494 568 37,000  Level FlightAware ADS-B
Sun 06:24:29 AM 30.0324 -99.0841 124° Southeast 499 574 37,000  Level FlightAware ADS-B
Sun 06:24:59 AM 29.9980 -99.0210 122° Southeast 499 574 37,000  Level FlightAware ADS-B
Sun 06:25:25 AM 29.9642 -98.9580 122° Southeast 501 577 37,000  Level FlightAware ADS-B
Sun 06:26:07 AM 29.9140 -98.8660 122° Southeast 503 579 37,000  Level FlightAware ADS-B
Sun 06:26:25 AM 29.8902 -98.8234 123° Southeast 502 578 37,000  Level FlightAware ADS-B
Sun 06:26:30 AM 29.8830 -98.8106 123° Southeast 504 580 37,000  Level FlightAware ADS-B
Sun 06:27:02 AM 29.8438 -98.7397 123° Southeast 505 581 37,000  Level FlightAware ADS-B
Sun 06:27:18 AM 29.8229 -98.7022 123° Southeast 505 581 37,000  Level FlightAware ADS-B
Sun 06:27:40 AM 29.7952 -98.6516 122° Southeast 507 583 37,000  Level FlightAware ADS-B
Sun 06:27:54 AM 29.7799 -98.6210 120° Southeast 507 583 37,000  Level FlightAware ADS-B
Sun 06:28:10 AM 29.7619 -98.5800 117° Southeast 511 588 37,000  Level FlightAware ADS-B
Sun 06:28:24 AM 29.7488 -98.5458 114° Southeast 511 588 37,000  Level FlightAware ADS-B
Sun 06:28:46 AM 29.7297 -98.4921 112° Southeast 511 588 37,000  Level FlightAware ADS-B
Sun 06:28:55 AM 29.7223 -98.4677 109° East 512 589 37,000  Level FlightAware ADS-B
Sun 06:28:59 AM 29.7193 -98.4571 108° East 513 590 37,000  Level FlightAware ADS-B
Sun 06:29:25 AM 29.7006 -98.3891 108° East 513 590 37,000  Level FlightAware ADS-B
Sun 06:29:35 AM 29.6938 -98.3649 108° East 513 590 37,000  Level FlightAware ADS-B
Sun 06:29:57 AM 29.6778 -98.3059 107° East 513 590 37,000  Level FlightAware ADS-B
Sun 06:30:12 AM 29.6672 -98.2670 107° East 513 590 37,000  Level FlightAware ADS-B
Sun 06:30:19 AM 29.6625 -98.2493 107° East 513 590 37,000  Level FlightAware ADS-B
Sun 06:30:40 AM 29.6507 -98.1943 104° East 511 588 37,000  Level FlightAware ADS-B
Sun 06:30:49 AM 29.6476 -98.1702 98° East 512 589 37,000  Level FlightAware ADS-B
Sun 06:30:53 AM 29.6468 -98.1614 96° East 510 587 37,000  Level FlightAware ADS-B
Sun 06:31:04 AM 29.6455 -98.1308 93° East 509 586 37,000  Level FlightAware ADS-B
Sun 06:31:34 AM 29.6427 -98.0488 92° East 509 586 37,000  Level FlightAware ADS-B
Sun 06:31:45 AM 29.6412 -98.0190 93° East 510 587 37,000  Level FlightAware ADS-B
Sun 06:32:04 AM 29.6385 -97.9670 93° East 511 588 37,000  Level FlightAware ADS-B
Sun 06:32:15 AM 29.6369 -97.9379 94° East 511 588 37,000  Level FlightAware ADS-B
Sun 06:32:35 AM 29.6344 -97.8854 93° East 512 589 37,000  Level FlightAware ADS-B
Sun 06:32:50 AM 29.6325 -97.8443 93° East 512 589 37,000  Level FlightAware ADS-B
Sun 06:33:05 AM 29.6305 -97.8035 93° East 512 589 37,000  Level FlightAware ADS-B
Sun 06:33:35 AM 29.6266 -97.7229 93° East 513 590 37,000 -222 Level FlightAware ADS-B
Sun 06:33:59 AM 29.6235 -97.6567 93° East 516 594 36,800 -1,000 Descending FlightAware ADS-B
Sun 06:34:05 AM 29.6228 -97.6394 93° East 519 597 36,500 -2,833 Descending FlightAware ADS-B
Sun 06:34:35 AM 29.6189 -97.5565 93° East 526 605 35,100 -2,710 Descending FlightAware ADS-B
Sun 06:34:36 AM 29.6188 -97.5551 95° East 525 604 35,100 -2,323 Level FlightAware ADS-B
Sun 06:35:06 AM 29.6146 -97.4714 93° East 520 598 33,900 -2,824 Descending FlightAware ADS-B
Sun 06:35:27 AM 29.6117 -97.4138 93° East 521 600 32,700 -3,800 Descending FlightAware ADS-B
Sun 06:35:36 AM 29.6104 -97.3868 93° East 530 610 32,000 -3,882 Descending FlightAware ADS-B
Sun 06:36:01 AM 29.6071 -97.3167 93° East 536 617 30,500 -3,484 Descending FlightAware ADS-B
Sun 06:36:07 AM 29.6065 -97.3011 93° East 536 617 30,200 -3,086 Descending FlightAware ADS-B
Sun 06:36:36 AM 29.6025 -97.2168 93° East 536 617 28,700 -3,000 Descending FlightAware ADS-B
Sun 06:36:37 AM 29.6024 -97.2157 96° East 533 613 28,700 -2,323 Level FlightAware ADS-B
Sun 06:37:07 AM 29.5980 -97.1317 93° East 522 601 27,500 -2,250 Descending FlightAware ADS-B
Sun 06:37:09 AM 29.5978 -97.1274 93° East 522 601 27,500 -2,323 Level FlightAware ADS-B
Sun 06:37:38 AM 29.5940 -97.0479 93° East 508 585 26,300 -2,400 Descending FlightAware ADS-B
Sun 06:37:39 AM 29.5939 -97.0449 92° East 507 583 26,300 -2,400 Level FlightAware ADS-B
Sun 06:38:08 AM 29.5898 -96.9678 93° East 495 570 25,100 -2,516 Descending FlightAware ADS-B
Sun 06:38:10 AM 29.5895 -96.9624 94° East 494 568 25,000 -2,400 Descending FlightAware ADS-B
Sun 06:38:38 AM 29.5855 -96.8910 94° East 481 554 23,900 -2,237 Descending FlightAware ADS-B
Sun 06:39:09 AM 29.5816 -96.8142 93° East 468 539 22,800 -2,262 Descending FlightAware ADS-B
Sun 06:39:39 AM 29.5777 -96.7396 93° East 456 525 21,600 -2,400 Descending FlightAware ADS-B
Sun 06:40:09 AM 29.5738 -96.6679 94° East 448 516 20,400 -2,372 Descending FlightAware ADS-B
Sun 06:40:22 AM 29.5721 -96.6376 94° East 446 513 19,900 -2,129 Descending FlightAware ADS-B
Sun 06:40:40 AM 29.5700 -96.5962 93° East 440 506 19,300 -2,375 Descending FlightAware ADS-B
Sun 06:41:10 AM 29.5661 -96.5267 94° East 433 498 18,000 -2,400 Descending FlightAware ADS-B
Sun 06:41:40 AM 29.5623 -96.4584 94° East 424 488 16,900 -2,300 Descending FlightAware ADS-B
Sun 06:42:10 AM 29.5585 -96.3905 94° East 417 480 15,700 -2,361 Descending FlightAware ADS-B
Sun 06:42:41 AM 29.5548 -96.3246 94° East 410 472 14,500 -2,164 Descending FlightAware ADS-B
Sun 06:43:11 AM 29.5514 -96.2594 93° East 399 459 13,500 -1,756 Descending FlightAware ADS-B
Sun 06:43:22 AM 29.5509 -96.2358 91° East 390 449 13,300 -1,043 Descending FlightAware ADS-B
Sun 06:43:34 AM 29.5519 -96.2118 87° East 387 445 13,100 -960 Descending FlightAware ADS-B
Sun 06:43:47 AM 29.5545 -96.1845 84° East 385 443 12,900 -955 Descending FlightAware ADS-B
Sun 06:44:18 AM 29.5650 -96.1241 79° East 384 442 12,400 -968 Descending FlightAware ADS-B
Sun 06:44:49 AM 29.5764 -96.0628 78° East 379 436 11,900 -750 Descending FlightAware ADS-B
Sun 06:45:14 AM 29.5856 -96.0132 78° East 376 433 11,700 -545 Descending FlightAware ADS-B
Sun 06:45:22 AM 29.5894 -95.9973 75° East 376 433 11,600 -857 Descending FlightAware ADS-B
Sun 06:45:28 AM 29.5926 -95.9868 71° East 376 433 11,500 -1,000 Descending FlightAware ADS-B
Sun 06:45:34 AM 29.5970 -95.9750 67° East 377 434 11,400 -727 Descending FlightAware ADS-B
Sun 06:46:01 AM 29.6180 -95.9278 63° Northeast 370 426 11,100 -667 Descending FlightAware ADS-B
Sun 06:46:10 AM 29.6261 -95.9125 59° Northeast 369 425 11,000 -615 Descending FlightAware ADS-B
Sun 06:46:40 AM 29.6560 -95.8644 54° Northeast 369 425 10,700 -689 Descending FlightAware ADS-B
Sun 06:47:11 AM 29.6862 -95.8156 55° Northeast 364 419 10,300 -724 Descending FlightAware ADS-B
Sun 06:47:38 AM 29.7117 -95.7736 55° Northeast 356 410 10,000 -558 Descending FlightAware ADS-B
Sun 06:47:54 AM 29.7261 -95.7495 55° Northeast 342 394 9,900 -194 Descending FlightAware ADS-B
Sun 06:48:09 AM 29.7394 -95.7276 55° Northeast 321 369 9,900  Level FlightAware ADS-B
Sun 06:48:25 AM 29.7526 -95.7059 55° Northeast 302 348 9,900 -649 Level FlightAware ADS-B
Sun 06:48:46 AM 29.7691 -95.6787 55° Northeast 292 336 9,500 -1,297 Descending FlightAware ADS-B
Sun 06:49:02 AM 29.7813 -95.6584 55° Northeast 290 334 9,100 -1,500 Descending FlightAware ADS-B
Sun 06:49:18 AM 29.7939 -95.6378 55° Northeast 288 331 8,700 -1,500 Descending FlightAware ADS-B
Sun 06:49:38 AM 29.8086 -95.6136 55° Northeast 287 330 8,200 -1,543 Descending FlightAware ADS-B
Sun 06:49:53 AM 29.8206 -95.5937 55° Northeast 288 331 7,800 -1,444 Descending FlightAware ADS-B
Sun 06:50:32 AM 29.8498 -95.5455 55° Northeast 287 330 6,900 -1,345 Descending FlightAware ADS-B
Sun 06:50:51 AM 29.8626 -95.5243 55° Northeast 282 325 6,500 -1,200 Descending FlightAware ADS-B
Sun 06:51:02 AM 29.8721 -95.5086 55° Northeast 278 320 6,300 -900 Descending FlightAware ADS-B
Sun 06:51:11 AM 29.8778 -95.4993 55° Northeast 277 319 6,200 -900 Descending FlightAware ADS-B
Sun 06:51:22 AM 29.8867 -95.4845 55° Northeast 278 320 6,000 -900 Descending FlightAware ADS-B
Sun 06:51:31 AM 29.8876 -95.4832 53° Northeast 277 319 5,900 -375 Descending FlightAware ADS-B
Sun 06:51:38 AM 29.8984 -95.4651 55° Northeast 278 320 5,900  Level FlightAware ADS-B
Sun 06:51:43 AM 29.9015 -95.4586 61° Northeast 278 320 5,900  Level FlightAware ADS-B
Sun 06:51:46 AM 29.9031 -95.4541 68° East 278 320 5,900  Level FlightAware ADS-B
Sun 06:51:51 AM 29.9047 -95.4468 76° East 276 318 5,900  Level FlightAware ADS-B
Sun 06:51:59 AM 29.9059 -95.4348 83° East 276 318 5,900  Level FlightAware ADS-B
Sun 06:52:08 AM 29.9064 -95.4250 87° East 277 319 5,900  Level FlightAware ADS-B
Sun 06:52:15 AM 29.9070 -95.4113 87° East 277 319 5,900  Level FlightAware ADS-B
Sun 06:52:33 AM 29.9079 -95.3897 87° East 274 315 5,900  Level FlightAware ADS-B
Sun 06:52:53 AM 29.9088 -95.3675 87° East 274 315 5,900  Level FlightAware ADS-B
Sun 06:53:02 AM 29.9098 -95.3428 87° East 274 315 5,900  Level FlightAware ADS-B
Sun 06:53:10 AM 29.9101 -95.3350 87° East 274 315 5,900  Level FlightAware ADS-B
Sun 06:53:19 AM 29.9108 -95.3181 87° East 274 315 5,900  Level FlightAware ADS-B
Sun 06:53:29 AM 29.9113 -95.3058 87° East 273 314 5,900  Level FlightAware ADS-B
Sun 06:53:41 AM 29.9121 -95.2868 87° East 273 314 5,900  Level FlightAware ADS-B
Sun 06:53:50 AM 29.9125 -95.2756 88° East 274 315 5,900  Level FlightAware ADS-B
Sun 06:53:56 AM 29.9129 -95.2640 88° East 274 315 5,900 -783 Level FlightAware ADS-B
Sun 06:54:13 AM 29.9137 -95.2425 87° East 269 310 5,600 -1,688 Descending FlightAware ADS-B
Sun 06:54:28 AM 29.9146 -95.2193 87° East 268 308 5,000 -2,211 Descending FlightAware ADS-B
Sun 06:54:32 AM 29.9147 -95.2164 89° East 268 308 4,900 -2,400 Descending FlightAware ADS-B
Sun 06:54:43 AM 29.9155 -95.1968 87° East 270 311 4,400 -2,400 Descending FlightAware ADS-B
Sun 06:54:52 AM 29.9161 -95.1863 87° East 271 312 4,100 -2,625 Descending FlightAware ADS-B
Sun 06:54:59 AM 29.9166 -95.1741 87° East 270 311 3,700 -2,000 Descending FlightAware ADS-B
Sun 06:55:13 AM 29.9174 -95.1590 86° East 265 305 3,400 -1,600 Descending FlightAware ADS-B
Sun 06:55:14 AM 29.9177 -95.1526 87° East 263 303 3,300 -1,059 Descending FlightAware ADS-B
Sun 06:55:30 AM 29.9188 -95.1317 87° East 249 287 3,100 -632 Descending FlightAware ADS-B
Sun 06:55:33 AM 29.9189 -95.1292 87° East 247 284 3,100 -1,500 Level FlightAware ADS-B
Sun 06:55:34 AM 29.9192 -95.1262 84° East 245 282 3,000 -1,200 Descending FlightAware ADS-B
Sun 06:55:38 AM 29.9198 -95.1214 82° East 243 280 3,000 -857 Level FlightAware ADS-B
Sun 06:55:41 AM 29.9208 -95.1170 75° East 241 277 2,900 -1,200 Descending FlightAware ADS-B
Sun 06:55:43 AM 29.9210 -95.1164 66° East 240 276 2,900  Level FlightAware ADS-B
Sun 06:55:44 AM 29.9222 -95.1130 68° East 239 275 2,900 -1,200 Level FlightAware ADS-B
Sun 06:55:48 AM 29.9244 -95.1087 59° Northeast 237 273 2,800 -667 Descending FlightAware ADS-B
Sun 06:55:53 AM 29.9256 -95.1069 53° Northeast 235 270 2,800 -750 Level FlightAware ADS-B
Sun 06:55:56 AM 29.9296 -95.1021 46° Northeast 234 269 2,700 -1,714 Descending FlightAware ADS-B
Sun 06:56:00 AM 29.9332 -95.0991 36° Northeast 235 270 2,600 -1,000 Descending FlightAware ADS-B
Sun 06:56:02 AM 29.9328 -95.0994 207° Southwest 234 269 2,600  Level FlightAware ADS-B
Sun 06:56:04 AM 29.9370 -95.0969 27° Northeast 235 270 2,600 -1,200 Level FlightAware ADS-B
Sun 06:56:07 AM 29.9407 -95.0955 18° North 236 272 2,500 -1,500 Descending FlightAware ADS-B
Sun 06:56:12 AM 29.9439 -95.0947 12° North 236 272 2,400 -1,200 Descending FlightAware ADS-B
Sun 06:56:17 AM 29.9510 -95.0939 North 237 273 2,300 -1,200 Descending FlightAware ADS-B
Sun 06:56:22 AM 29.9568 -95.0936 North 236 272 2,200 -1,500 Descending FlightAware ADS-B
Sun 06:56:25 AM 29.9601 -95.0938 357° North 236 272 2,100 -1,000 Descending FlightAware ADS-B
Sun 06:56:28 AM 29.9635 -95.0942 354° North 236 272 2,100 -857 Level FlightAware ADS-B
Sun 06:56:32 AM 29.9671 -95.0955 343° North 236 272 2,000 -1,200 Descending FlightAware ADS-B
Sun 06:56:33 AM 29.9666 -95.0952 154° Southeast 236 272 2,000  Level FlightAware ADS-B
Sun 06:56:35 AM 29.9707 -95.0974 335° Northwest 236 272 2,000 -1,000 Level FlightAware ADS-B
Sun 06:56:39 AM 29.9736 -95.0999 323° Northwest 235 270 1,900 -750 Descending FlightAware ADS-B
Sun 06:56:43 AM 29.9745 -95.1007 324° Northwest 233 268 1,900  Level FlightAware ADS-B
Sun 06:56:47 AM 29.9793 -95.1084 306° West 230 265 1,900  Level FlightAware ADS-B
Sun 06:56:50 AM 29.9803 -95.1119 288° West 229 264 1,900  Level FlightAware ADS-B
Sun 06:56:53 AM 29.9800 -95.1107 106° East 229 264 1,900  Level FlightAware ADS-B
Sun 06:56:55 AM 29.9810 -95.1169 280° West 229 264 1,900  Level FlightAware ADS-B
Sun 06:56:59 AM 29.9808 -95.1218 267° West 229 264 1,900  Level FlightAware ADS-B
Sun 06:57:02 AM 29.9805 -95.1243 262° West 228 262 1,900  Level FlightAware ADS-B
Sun 06:57:03 AM 29.9801 -95.1266 259° West 228 262 1,900  Level FlightAware ADS-B
Sun 06:57:07 AM 29.9793 -95.1321 260° West 227 261 1,900 -400 Level FlightAware ADS-B
Sun 06:57:18 AM 29.9783 -95.1443 265° West 222 255 1,800  Descending FlightAware ADS-B
Sun 06:57:22 AM 29.9782 -95.1476 267° West 216 249 1,900 750 Climbing FlightAware ADS-B
Sun 06:57:26 AM 29.9779 -95.1536 267° West 210 242 1,900  Level FlightAware ADS-B
Sun 06:57:41 AM 29.9776 -95.1703 269° West 194 223 1,900  Level FlightAware ADS-B
Sun 06:57:43 AM 29.9776 -95.1694 92° East 193 222 1,900 -333 Level FlightAware ADS-B
Sun 06:57:59 AM 29.9775 -95.1885 270° West 190 219 1,800 -316 Descending FlightAware ADS-B
Sun 06:58:02 AM 29.9775 -95.1891 273° West 191 220 1,800 -750 Level FlightAware ADS-B
Sun 06:58:15 AM 29.9776 -95.2043 270° West 190 219 1,600 -857 Descending FlightAware ADS-B
Sun 06:58:23 AM 29.9777 -95.2110 271° West 188 216 1,500 -1,059 Descending FlightAware ADS-B
Sun 06:58:32 AM 29.9776 -95.2215 270° West 184 212 1,300 -1,043 Descending FlightAware ADS-B
Sun 06:58:46 AM 29.9776 -95.2350 270° West 171 197 1,100 -1,000 Descending FlightAware ADS-B
Sun 06:59:02 AM 29.9775 -95.2484 270° West 159 183 800 -783 Descending FlightAware ADS-B
Sun 06:59:09 AM 29.9776 -95.2542 271° West 152 175 800 -545 Level FlightAware ADS-B
Sun 06:59:13 AM 29.9776 -95.2561 269° West 151 174 700 -1,091 Descending FlightAware ADS-B
Sun 06:59:20 AM 29.9776 -95.2629 270° West 150 173 600 -706 Descending FlightAware ADS-B
Sun 06:59:30 AM 29.9776 -95.2707 270° West 147 169 500 -720 Descending FlightAware ADS-B
Sun 06:59:45 AM 29.9776 -95.2822 270° West 144 166 300 -750 Descending FlightAware ADS-B
Sun 06:59:54 AM 29.9776 -95.2863 270° West 141 162 200 -706 Descending FlightAware ADS-B
Sun 07:00:02 AM 29.9776 -95.2955 270° West 139 160 100 -750 Descending FlightAware ADS-B

Login

Don't have an account? Register now (free) for customized features, flight alerts, and more!